Meteo Giornale » Osservazioni meteo Italia » Decimomannu

ore: 07:55 - Osservazioni Meteo Decimomannu
Lat. 39° 21' N Lon. 8° 58' E Alt. 29 metri s.l.m.

sereno Europe/Rome

21 °C

Sereno

Temp. 24 Ore

18 °C

31 °C

Nord/NOvest

11.1 Km/h

Dew point 20 °C

Umidità 94 %

Visibilità  10 Km

Il sole sorge alle ore 05:56

Il sole tramonta alle ore 20:56

Data e Ora Cielo e Fenomeni T °C DP °C Um. % Pres. hPa Vis. km Vento km/h
Oggi h: 07:55 sereno Sereno 21 20 94 1015 10 N/NO 11.1
Oggi h: 06:55 sereno Sereno 19 18 93 1015 10 N 5.5
Oggi h: 05:55 sereno Sereno 18 17 93 1015 10 N/NO 9.3
Oggi h: 04:55 sereno Sereno 18 17 93 1014 10 N 5.5
Oggi h: 03:55 sereno Sereno 19 18 93 1015 10 N 5.5
Oggi h: 02:55 sereno Sereno 20 19 93 1015 10 N 7.4
Oggi h: 01:55 sereno Sereno 20 19 93 1015 10 N 5.5
Oggi h: 00:55 sereno Sereno 21 21 100 1016 10 N 3.7
Ieri h: 23:55 sereno Sereno 22 22 100 1016 10 N 3.7
Ieri h: 22:55 sereno Sereno 23 22 94 1016 10 N 5.5
Ieri h: 21:55 sereno Sereno 24 24 100 1015 10 N 3.7
Ieri h: 20:55 sereno Sereno 25 25 100 1015 10 N 3.7
Ieri h: 19:55 sereno Sereno 26 23 83 1015 10 N 3.7
Ieri h: 18:55 poco_nuvoloso Poco Nuvoloso 26 24 88 1015 10 O 7.4
Ieri h: 17:14 nuvoloso Nuvoloso 27 23 78 1015 10 N 3.7
Ieri h: 16:55 coperto_temporali Temporale 27 23 78 1015 10 S/SE 9.3
Ieri h: 16:14 coperto_temporali Temporale 29 21 62 1015 10 E/SE 18.5
Ieri h: 12:55 nuvoloso Nuvoloso 31 18 45 1016 10 S/SO 14.8
Ieri h: 11:55 poco_nuvoloso Poco Nuvoloso 31 19 48 1016 10 SE 7.4
Ieri h: 10:55 poco_nuvoloso Poco Nuvoloso 30 20 55 1017 10 N 5.5
Ieri h: 09:55 sereno Sereno 26 21 73 1017 10 N 3.7